sensor_id;sensor_type;location;lat;lon;timestamp;pressure;altitude;pressure_sealevel;temperature;humidity
50282;BME280;36176;51.506;10.272;2022-07-06T00:02:08;100108.59;;;16.04;62.91
50282;BME280;36176;51.506;10.272;2022-07-06T00:04:35;100107.94;;;16.00;63.00
50282;BME280;36176;51.506;10.272;2022-07-06T00:07:02;100114.97;;;16.01;63.04
50282;BME280;36176;51.506;10.272;2022-07-06T00:09:29;100114.22;;;15.99;62.89
50282;BME280;36176;51.506;10.272;2022-07-06T00:11:56;100105.53;;;15.95;62.90
50282;BME280;36176;51.506;10.272;2022-07-06T00:14:23;100118.38;;;15.89;63.55
50282;BME280;36176;51.506;10.272;2022-07-06T00:16:51;100111.09;;;15.77;63.68
50282;BME280;36176;51.506;10.272;2022-07-06T00:19:18;100113.66;;;15.62;63.77
50282;BME280;36176;51.506;10.272;2022-07-06T00:21:45;100120.66;;;15.49;64.43
50282;BME280;36176;51.506;10.272;2022-07-06T00:24:12;100116.28;;;15.32;65.45
50282;BME280;36176;51.506;10.272;2022-07-06T00:26:40;100117.41;;;15.12;65.82
50282;BME280;36176;51.506;10.272;2022-07-06T00:29:07;100112.03;;;14.96;66.28
50282;BME280;36176;51.506;10.272;2022-07-06T00:31:34;100112.91;;;14.81;67.17
50282;BME280;36176;51.506;10.272;2022-07-06T00:34:02;100122.59;;;14.66;67.92
50282;BME280;36176;51.506;10.272;2022-07-06T00:36:29;100116.41;;;14.48;68.29
50282;BME280;36176;51.506;10.272;2022-07-06T00:38:56;100120.91;;;14.30;68.90
50282;BME280;36176;51.506;10.272;2022-07-06T00:41:23;100114.72;;;14.12;69.67
50282;BME280;36176;51.506;10.272;2022-07-06T00:43:55;100115.56;;;13.95;70.56
50282;BME280;36176;51.506;10.272;2022-07-06T00:46:26;100116.38;;;13.80;70.47
50282;BME280;36176;51.506;10.272;2022-07-06T00:48:54;100118.00;;;13.65;71.24
50282;BME280;36176;51.506;10.272;2022-07-06T00:51:25;100122.25;;;13.50;72.00
50282;BME280;36176;51.506;10.272;2022-07-06T00:53:57;100115.66;;;13.40;72.17
50282;BME280;36176;51.506;10.272;2022-07-06T00:56:26;100118.69;;;13.32;72.41
50282;BME280;36176;51.506;10.272;2022-07-06T00:58:55;100115.44;;;13.26;72.54
50282;BME280;36176;51.506;10.272;2022-07-06T01:01:22;100120.97;;;13.21;72.99
50282;BME280;36176;51.506;10.272;2022-07-06T01:03:49;100121.28;;;13.15;73.29
50282;BME280;36176;51.506;10.272;2022-07-06T01:06:16;100114.31;;;13.12;74.10
50282;BME280;36176;51.506;10.272;2022-07-06T01:08:43;100108.41;;;13.06;74.23
50282;BME280;36176;51.506;10.272;2022-07-06T01:11:11;100110.53;;;12.97;73.90
50282;BME280;36176;51.506;10.272;2022-07-06T01:13:39;100111.72;;;12.92;74.54
50282;BME280;36176;51.506;10.272;2022-07-06T01:16:07;100118.19;;;12.86;74.31
50282;BME280;36176;51.506;10.272;2022-07-06T01:18:34;100116.66;;;12.81;74.83
50282;BME280;36176;51.506;10.272;2022-07-06T01:21:09;100116.94;;;12.74;75.70
50282;BME280;36176;51.506;10.272;2022-07-06T01:23:45;100110.19;;;12.67;75.89
50282;BME280;36176;51.506;10.272;2022-07-06T01:26:17;100107.69;;;12.64;75.61
50282;BME280;36176;51.506;10.272;2022-07-06T01:28:48;100111.09;;;12.66;75.14
50282;BME280;36176;51.506;10.272;2022-07-06T01:31:19;100105.94;;;12.63;75.67
50282;BME280;36176;51.506;10.272;2022-07-06T01:33:48;100105.13;;;12.61;75.83
50282;BME280;36176;51.506;10.272;2022-07-06T01:36:15;100103.56;;;12.57;75.26
50282;BME280;36176;51.506;10.272;2022-07-06T01:38:53;100098.56;;;12.49;76.30
50282;BME280;36176;51.506;10.272;2022-07-06T01:41:21;100097.13;;;12.42;75.88
50282;BME280;36176;51.506;10.272;2022-07-06T01:43:48;100106.31;;;12.35;76.26
50282;BME280;36176;51.506;10.272;2022-07-06T01:46:16;100105.84;;;12.25;76.44
50282;BME280;36176;51.506;10.272;2022-07-06T01:48:43;100115.97;;;12.17;76.91
50282;BME280;36176;51.506;10.272;2022-07-06T01:51:10;100108.25;;;12.11;76.46
50282;BME280;36176;51.506;10.272;2022-07-06T01:53:38;100107.78;;;12.01;76.38
50282;BME280;36176;51.506;10.272;2022-07-06T01:56:06;100104.81;;;11.88;77.77
50282;BME280;36176;51.506;10.272;2022-07-06T01:58:33;100108.59;;;11.81;77.86
50282;BME280;36176;51.506;10.272;2022-07-06T02:01:04;100104.28;;;11.79;78.43
50282;BME280;36176;51.506;10.272;2022-07-06T02:03:33;100113.34;;;11.73;78.25
50282;BME280;36176;51.506;10.272;2022-07-06T02:06:00;100113.69;;;11.65;78.67
50282;BME280;36176;51.506;10.272;2022-07-06T02:08:28;100112.16;;;11.60;78.50
50282;BME280;36176;51.506;10.272;2022-07-06T02:10:55;100108.88;;;11.53;78.58
50282;BME280;36176;51.506;10.272;2022-07-06T02:13:23;100108.41;;;11.43;79.26
50282;BME280;36176;51.506;10.272;2022-07-06T02:15:50;100113.94;;;11.37;79.69
50282;BME280;36176;51.506;10.272;2022-07-06T02:18:17;100111.41;;;11.34;79.27
50282;BME280;36176;51.506;10.272;2022-07-06T02:20:45;100109.75;;;11.32;79.56
50282;BME280;36176;51.506;10.272;2022-07-06T02:23:12;100117.78;;;11.30;79.19
50282;BME280;36176;51.506;10.272;2022-07-06T02:25:40;100125.97;;;11.24;79.26
50282;BME280;36176;51.506;10.272;2022-07-06T02:28:07;100119.19;;;11.17;78.81
50282;BME280;36176;51.506;10.272;2022-07-06T02:30:34;100124.84;;;11.07;80.17
50282;BME280;36176;51.506;10.272;2022-07-06T02:33:01;100126.69;;;11.05;79.71
50282;BME280;36176;51.506;10.272;2022-07-06T02:35:28;100136.38;;;11.06;79.85
50282;BME280;36176;51.506;10.272;2022-07-06T02:37:55;100138.28;;;11.03;79.99
50282;BME280;36176;51.506;10.272;2022-07-06T02:40:22;100133.09;;;11.00;80.16
50282;BME280;36176;51.506;10.272;2022-07-06T02:42:49;100121.06;;;10.91;80.30
50282;BME280;36176;51.506;10.272;2022-07-06T02:45:17;100119.56;;;10.84;80.80
50282;BME280;36176;51.506;10.272;2022-07-06T02:47:44;100112.75;;;10.77;81.37
50282;BME280;36176;51.506;10.272;2022-07-06T02:50:11;100112.06;;;10.72;81.03
50282;BME280;36176;51.506;10.272;2022-07-06T02:52:38;100111.44;;;10.65;81.10
50282;BME280;36176;51.506;10.272;2022-07-06T02:55:07;100111.59;;;10.60;81.73
50282;BME280;36176;51.506;10.272;2022-07-06T02:57:34;100115.31;;;10.56;81.57
50282;BME280;36176;51.506;10.272;2022-07-06T03:00:03;100115.41;;;10.53;81.75
50282;BME280;36176;51.506;10.272;2022-07-06T03:02:30;100120.13;;;10.45;82.06
50282;BME280;36176;51.506;10.272;2022-07-06T03:04:58;100125.59;;;10.40;81.70
50282;BME280;36176;51.506;10.272;2022-07-06T03:07:25;100126.59;;;10.36;81.83
50282;BME280;36176;51.506;10.272;2022-07-06T03:09:52;100132.03;;;10.33;81.62
50282;BME280;36176;51.506;10.272;2022-07-06T03:12:19;100137.31;;;10.33;82.09
50282;BME280;36176;51.506;10.272;2022-07-06T03:14:46;100135.59;;;10.32;82.55
50282;BME280;36176;51.506;10.272;2022-07-06T03:17:14;100132.13;;;10.30;82.00
50282;BME280;36176;51.506;10.272;2022-07-06T03:19:41;100139.34;;;10.25;82.36
50282;BME280;36176;51.506;10.272;2022-07-06T03:22:08;100145.56;;;10.24;82.95
50282;BME280;36176;51.506;10.272;2022-07-06T03:24:35;100140.22;;;10.26;82.99
50282;BME280;36176;51.506;10.272;2022-07-06T03:27:02;100149.88;;;10.27;82.65
50282;BME280;36176;51.506;10.272;2022-07-06T03:29:29;100154.22;;;10.29;83.46
50282;BME280;36176;51.506;10.272;2022-07-06T03:31:57;100159.38;;;10.34;83.14
50282;BME280;36176;51.506;10.272;2022-07-06T03:34:24;100161.94;;;10.37;83.10
50282;BME280;36176;51.506;10.272;2022-07-06T03:36:51;100159.97;;;10.42;82.55
50282;BME280;36176;51.506;10.272;2022-07-06T03:39:19;100160.69;;;10.47;82.65
50282;BME280;36176;51.506;10.272;2022-07-06T03:41:46;100158.75;;;10.51;82.69
50282;BME280;36176;51.506;10.272;2022-07-06T03:44:13;100162.06;;;10.57;82.83
50282;BME280;36176;51.506;10.272;2022-07-06T03:46:40;100159.22;;;10.63;82.98
50282;BME280;36176;51.506;10.272;2022-07-06T03:49:07;100166.34;;;10.61;83.28
50282;BME280;36176;51.506;10.272;2022-07-06T03:51:34;100158.28;;;10.64;82.54
50282;BME280;36176;51.506;10.272;2022-07-06T03:54:01;100151.09;;;10.68;82.85
50282;BME280;36176;51.506;10.272;2022-07-06T03:56:28;100155.34;;;10.72;82.65
50282;BME280;36176;51.506;10.272;2022-07-06T03:58:57;100151.66;;;10.76;82.55
50282;BME280;36176;51.506;10.272;2022-07-06T04:01:24;100153.97;;;10.85;82.21
50282;BME280;36176;51.506;10.272;2022-07-06T04:03:52;100153.84;;;10.89;82.37
50282;BME280;36176;51.506;10.272;2022-07-06T04:06:19;100166.94;;;10.93;82.49
50282;BME280;36176;51.506;10.272;2022-07-06T04:08:47;100161.50;;;10.96;82.72
50282;BME280;36176;51.506;10.272;2022-07-06T04:11:14;100164.00;;;11.01;82.04
50282;BME280;36176;51.506;10.272;2022-07-06T04:13:41;100169.13;;;11.05;82.18
50282;BME280;36176;51.506;10.272;2022-07-06T04:16:08;100176.72;;;11.15;81.91
50282;BME280;36176;51.506;10.272;2022-07-06T04:18:36;100185.81;;;11.31;81.89
50282;BME280;36176;51.506;10.272;2022-07-06T04:21:04;100180.22;;;11.39;81.88
50282;BME280;36176;51.506;10.272;2022-07-06T04:23:31;100183.31;;;11.50;81.27
50282;BME280;36176;51.506;10.272;2022-07-06T04:25:59;100185.91;;;11.52;82.38
50282;BME280;36176;51.506;10.272;2022-07-06T04:28:26;100183.78;;;11.61;82.15
50282;BME280;36176;51.506;10.272;2022-07-06T04:30:54;100183.84;;;11.80;82.37
50282;BME280;36176;51.506;10.272;2022-07-06T04:33:21;100189.06;;;12.05;82.22
50282;BME280;36176;51.506;10.272;2022-07-06T04:35:50;100179.91;;;12.33;81.37
50282;BME280;36176;51.506;10.272;2022-07-06T04:38:18;100188.50;;;12.60;81.59
50282;BME280;36176;51.506;10.272;2022-07-06T04:40:45;100187.44;;;12.83;81.18
50282;BME280;36176;51.506;10.272;2022-07-06T04:43:18;100190.34;;;12.97;80.41
50282;BME280;36176;51.506;10.272;2022-07-06T04:45:45;100194.25;;;13.09;79.28
50282;BME280;36176;51.506;10.272;2022-07-06T04:48:14;100193.97;;;13.15;79.55
50282;BME280;36176;51.506;10.272;2022-07-06T04:50:41;100197.06;;;13.25;79.26
50282;BME280;36176;51.506;10.272;2022-07-06T04:53:08;100198.53;;;13.32;79.80
50282;BME280;36176;51.506;10.272;2022-07-06T04:55:38;100197.31;;;13.39;79.52
50282;BME280;36176;51.506;10.272;2022-07-06T04:58:05;100193.50;;;13.45;78.90
50282;BME280;36176;51.506;10.272;2022-07-06T05:00:32;100191.63;;;13.47;79.01
50282;BME280;36176;51.506;10.272;2022-07-06T05:03:22;100196.88;;;13.49;79.62
50282;BME280;36176;51.506;10.272;2022-07-06T05:05:49;100194.00;;;13.53;79.62
50282;BME280;36176;51.506;10.272;2022-07-06T05:08:20;100204.97;;;13.65;79.46
50282;BME280;36176;51.506;10.272;2022-07-06T05:10:49;100201.09;;;13.72;79.17
50282;BME280;36176;51.506;10.272;2022-07-06T05:13:18;100201.44;;;13.83;nan
50282;BME280;36176;51.506;10.272;2022-07-06T05:15:50;100196.91;;;13.85;77.11
50282;BME280;36176;51.506;10.272;2022-07-06T05:18:17;100204.28;;;13.97;77.42
50282;BME280;36176;51.506;10.272;2022-07-06T05:20:52;100204.63;;;14.09;76.99
50282;BME280;36176;51.506;10.272;2022-07-06T05:23:19;100211.19;;;14.19;76.34
50282;BME280;36176;51.506;10.272;2022-07-06T05:25:53;100209.56;;;14.34;76.52
50282;BME280;36176;51.506;10.272;2022-07-06T05:28:20;100214.25;;;14.46;74.74
50282;BME280;36176;51.506;10.272;2022-07-06T05:30:48;100213.00;;;14.53;75.01
50282;BME280;36176;51.506;10.272;2022-07-06T05:33:18;100209.59;;;14.68;74.40
50282;BME280;36176;51.506;10.272;2022-07-06T05:35:45;100206.50;;;14.76;73.87
50282;BME280;36176;51.506;10.272;2022-07-06T05:38:18;100211.13;;;14.90;73.08
50282;BME280;36176;51.506;10.272;2022-07-06T05:40:45;100205.91;;;15.04;73.24
50282;BME280;36176;51.506;10.272;2022-07-06T05:43:15;100208.25;;;15.26;72.59
50282;BME280;36176;51.506;10.272;2022-07-06T05:45:44;100212.91;;;15.39;71.71
50282;BME280;36176;51.506;10.272;2022-07-06T05:48:11;100212.84;;;15.56;72.21
50282;BME280;36176;51.506;10.272;2022-07-06T05:50:59;100214.78;;;15.70;70.80
50282;BME280;36176;51.506;10.272;2022-07-06T05:53:28;100214.78;;;15.86;69.55
50282;BME280;36176;51.506;10.272;2022-07-06T05:55:55;100218.34;;;16.16;68.48
50282;BME280;36176;51.506;10.272;2022-07-06T05:58:32;100215.59;;;16.63;67.73
50282;BME280;36176;51.506;10.272;2022-07-06T06:01:00;100216.31;;;16.95;65.77
50282;BME280;36176;51.506;10.272;2022-07-06T06:03:29;100219.47;;;17.44;64.79
50282;BME280;36176;51.506;10.272;2022-07-06T06:05:56;100232.47;;;18.06;62.05
50282;BME280;36176;51.506;10.272;2022-07-06T06:08:23;100226.38;;;18.57;60.17
50282;BME280;36176;51.506;10.272;2022-07-06T06:10:53;100223.41;;;19.26;59.19
50282;BME280;36176;51.506;10.272;2022-07-06T06:13:20;100226.13;;;20.00;55.40
50282;BME280;36176;51.506;10.272;2022-07-06T06:15:51;100226.31;;;20.45;52.46
50282;BME280;36176;51.506;10.272;2022-07-06T06:18:18;100226.34;;;20.91;52.24
50282;BME280;36176;51.506;10.272;2022-07-06T06:20:46;100224.91;;;21.55;51.41
50282;BME280;36176;51.506;10.272;2022-07-06T06:23:17;100224.56;;;22.46;48.94
50282;BME280;36176;51.506;10.272;2022-07-06T06:25:44;100229.59;;;22.82;45.83
50282;BME280;36176;51.506;10.272;2022-07-06T06:28:11;100225.41;;;23.10;45.03
50282;BME280;36176;51.506;10.272;2022-07-06T06:30:46;100222.63;;;23.62;44.66
50282;BME280;36176;51.506;10.272;2022-07-06T06:33:18;100218.47;;;24.76;44.03
50282;BME280;36176;51.506;10.272;2022-07-06T06:35:50;100223.78;;;25.24;38.97
50282;BME280;36176;51.506;10.272;2022-07-06T06:38:22;100229.31;;;24.47;39.26
50282;BME280;36176;51.506;10.272;2022-07-06T06:40:55;100233.63;;;22.99;41.42
50282;BME280;36176;51.506;10.272;2022-07-06T06:43:30;100231.69;;;22.04;43.01
50282;BME280;36176;51.506;10.272;2022-07-06T06:45:57;100228.22;;;21.24;45.22
50282;BME280;36176;51.506;10.272;2022-07-06T06:48:28;100230.50;;;20.84;46.69
50282;BME280;36176;51.506;10.272;2022-07-06T06:50:56;100238.16;;;20.66;47.81
50282;BME280;36176;51.506;10.272;2022-07-06T06:53:25;100230.97;;;20.78;47.41
50282;BME280;36176;51.506;10.272;2022-07-06T06:55:52;100233.44;;;20.81;47.21
50282;BME280;36176;51.506;10.272;2022-07-06T06:58:19;100233.31;;;20.82;47.06
50282;BME280;36176;51.506;10.272;2022-07-06T07:00:50;100238.19;;;20.77;48.02
50282;BME280;36176;51.506;10.272;2022-07-06T07:03:17;100238.22;;;20.53;47.37
50282;BME280;36176;51.506;10.272;2022-07-06T07:05:44;100230.19;;;20.29;47.55
50282;BME280;36176;51.506;10.272;2022-07-06T07:08:15;100235.69;;;20.04;48.40
50282;BME280;36176;51.506;10.272;2022-07-06T07:10:42;100234.56;;;19.82;49.55
50282;BME280;36176;51.506;10.272;2022-07-06T07:13:09;100238.25;;;19.81;49.71
50282;BME280;36176;51.506;10.272;2022-07-06T07:15:43;100249.69;;;19.59;49.90
50282;BME280;36176;51.506;10.272;2022-07-06T07:18:16;100244.75;;;19.53;49.78
50282;BME280;36176;51.506;10.272;2022-07-06T07:20:46;100259.97;;;19.16;50.74
50282;BME280;36176;51.506;10.272;2022-07-06T07:23:13;100255.03;;;18.69;51.70
50282;BME280;36176;51.506;10.272;2022-07-06T07:25:43;100254.88;;;18.45;52.33
50282;BME280;36176;51.506;10.272;2022-07-06T07:28:11;100254.34;;;18.40;52.32
50282;BME280;36176;51.506;10.272;2022-07-06T07:30:45;100253.78;;;18.35;52.09
50282;BME280;36176;51.506;10.272;2022-07-06T07:33:12;100256.19;;;18.40;52.01
50282;BME280;36176;51.506;10.272;2022-07-06T07:35:42;100256.47;;;18.35;52.14
50282;BME280;36176;51.506;10.272;2022-07-06T07:38:09;100256.50;;;18.48;52.39
50282;BME280;36176;51.506;10.272;2022-07-06T07:40:37;100260.50;;;18.55;51.91
50282;BME280;36176;51.506;10.272;2022-07-06T07:43:14;100260.94;;;18.49;51.17
50282;BME280;36176;51.506;10.272;2022-07-06T07:45:44;100263.47;;;18.38;51.61
50282;BME280;36176;51.506;10.272;2022-07-06T07:48:13;100263.56;;;18.36;51.88
50282;BME280;36176;51.506;10.272;2022-07-06T07:50:42;100260.72;;;18.65;52.94
50282;BME280;36176;51.506;10.272;2022-07-06T07:53:13;100265.50;;;19.38;51.14
50282;BME280;36176;51.506;10.272;2022-07-06T07:55:41;100259.00;;;19.79;50.01
50282;BME280;36176;51.506;10.272;2022-07-06T07:58:15;100262.75;;;20.13;48.26
50282;BME280;36176;51.506;10.272;2022-07-06T08:00:45;100253.53;;;20.29;48.01
50282;BME280;36176;51.506;10.272;2022-07-06T08:03:18;100263.38;;;20.65;46.85
50282;BME280;36176;51.506;10.272;2022-07-06T08:05:45;100253.81;;;21.08;45.67
50282;BME280;36176;51.506;10.272;2022-07-06T08:08:18;100255.63;;;20.96;43.92
50282;BME280;36176;51.506;10.272;2022-07-06T08:10:47;100251.78;;;20.87;44.83
50282;BME280;36176;51.506;10.272;2022-07-06T08:13:36;100242.81;;;21.44;43.05
50282;BME280;36176;51.506;10.272;2022-07-06T08:16:04;100238.75;;;21.39;43.03
50282;BME280;36176;51.506;10.272;2022-07-06T08:18:31;100242.06;;;21.20;43.15
50282;BME280;36176;51.506;10.272;2022-07-06T08:21:02;100253.03;;;20.83;43.26
50282;BME280;36176;51.506;10.272;2022-07-06T08:23:50;100255.59;;;20.25;44.93
50282;BME280;36176;51.506;10.272;2022-07-06T08:26:17;100259.38;;;19.98;44.71
50282;BME280;36176;51.506;10.272;2022-07-06T08:28:47;100250.97;;;20.27;45.09
50282;BME280;36176;51.506;10.272;2022-07-06T08:31:14;100252.50;;;20.43;43.67
50282;BME280;36176;51.506;10.272;2022-07-06T08:34:04;100250.91;;;20.64;44.97
50282;BME280;36176;51.506;10.272;2022-07-06T08:36:32;100256.84;;;21.03;44.30
50282;BME280;36176;51.506;10.272;2022-07-06T08:38:59;100255.66;;;21.30;43.48
50282;BME280;36176;51.506;10.272;2022-07-06T08:41:29;100257.25;;;21.10;41.67
50282;BME280;36176;51.506;10.272;2022-07-06T08:43:57;100252.44;;;21.02;40.16
50282;BME280;36176;51.506;10.272;2022-07-06T08:46:27;100251.06;;;21.98;40.60
50282;BME280;36176;51.506;10.272;2022-07-06T08:48:56;100241.13;;;23.26;36.82
50282;BME280;36176;51.506;10.272;2022-07-06T08:51:24;100248.41;;;24.45;35.88
50282;BME280;36176;51.506;10.272;2022-07-06T08:53:59;100238.00;;;24.70;32.94
50282;BME280;36176;51.506;10.272;2022-07-06T08:56:27;100240.44;;;24.53;34.45
50282;BME280;36176;51.506;10.272;2022-07-06T08:59:05;100234.31;;;24.61;33.69
50282;BME280;36176;51.506;10.272;2022-07-06T09:01:40;100232.53;;;24.99;32.13
50282;BME280;36176;51.506;10.272;2022-07-06T09:04:09;100235.72;;;24.75;32.26
50282;BME280;36176;51.506;10.272;2022-07-06T09:06:38;100223.47;;;24.12;32.46
50282;BME280;36176;51.506;10.272;2022-07-06T09:09:07;100231.38;;;23.34;34.21
50282;BME280;36176;51.506;10.272;2022-07-06T09:11:35;100239.06;;;22.87;34.20
50282;BME280;36176;51.506;10.272;2022-07-06T09:14:05;100234.84;;;23.16;34.49
50282;BME280;36176;51.506;10.272;2022-07-06T09:16:32;100225.84;;;23.46;33.09
50282;BME280;36176;51.506;10.272;2022-07-06T09:19:10;100233.41;;;23.52;33.39
50282;BME280;36176;51.506;10.272;2022-07-06T09:21:44;100232.16;;;23.56;33.46
50282;BME280;36176;51.506;10.272;2022-07-06T09:24:12;100231.88;;;23.59;34.20
50282;BME280;36176;51.506;10.272;2022-07-06T09:26:40;100240.91;;;23.39;34.01
50282;BME280;36176;51.506;10.272;2022-07-06T09:29:13;100241.47;;;23.32;34.85
50282;BME280;36176;51.506;10.272;2022-07-06T09:31:40;100233.00;;;24.16;34.96
50282;BME280;36176;51.506;10.272;2022-07-06T09:34:08;100232.91;;;25.23;33.21
50282;BME280;36176;51.506;10.272;2022-07-06T09:36:48;100242.06;;;25.60;32.79
50282;BME280;36176;51.506;10.272;2022-07-06T09:39:24;100242.66;;;25.81;31.29
50282;BME280;36176;51.506;10.272;2022-07-06T09:42:04;100236.25;;;25.45;30.75
50282;BME280;36176;51.506;10.272;2022-07-06T09:44:36;100237.19;;;24.59;31.74
50282;BME280;36176;51.506;10.272;2022-07-06T09:47:07;100238.53;;;23.86;33.07
50282;BME280;36176;51.506;10.272;2022-07-06T09:49:45;100240.88;;;23.08;34.02
50282;BME280;36176;51.506;10.272;2022-07-06T09:52:20;100242.06;;;22.52;35.04
50282;BME280;36176;51.506;10.272;2022-07-06T09:54:50;100263.66;;;22.20;35.49
50282;BME280;36176;51.506;10.272;2022-07-06T09:57:21;100260.47;;;21.60;36.60
50282;BME280;36176;51.506;10.272;2022-07-06T09:59:59;100256.13;;;21.23;38.22
50282;BME280;36176;51.506;10.272;2022-07-06T10:02:45;100263.00;;;21.28;38.46
50282;BME280;36176;51.506;10.272;2022-07-06T10:05:28;100258.72;;;21.36;39.34
50282;BME280;36176;51.506;10.272;2022-07-06T10:08:00;100262.31;;;21.48;39.01
50282;BME280;36176;51.506;10.272;2022-07-06T10:10:32;100261.31;;;21.60;38.20
50282;BME280;36176;51.506;10.272;2022-07-06T10:13:02;100266.59;;;21.51;39.03
50282;BME280;36176;51.506;10.272;2022-07-06T10:15:31;100250.53;;;21.49;38.41
50282;BME280;36176;51.506;10.272;2022-07-06T10:18:00;100256.78;;;21.38;39.34
50282;BME280;36176;51.506;10.272;2022-07-06T10:20:38;100252.22;;;21.28;38.98
50282;BME280;36176;51.506;10.272;2022-07-06T10:23:09;100253.81;;;21.30;39.86
50282;BME280;36176;51.506;10.272;2022-07-06T10:25:37;100255.69;;;21.41;40.31
50282;BME280;36176;51.506;10.272;2022-07-06T10:28:04;100253.06;;;21.73;40.74
50282;BME280;36176;51.506;10.272;2022-07-06T10:30:41;100249.25;;;22.42;41.10
50282;BME280;36176;51.506;10.272;2022-07-06T10:33:10;100245.16;;;23.10;39.49
50282;BME280;36176;51.506;10.272;2022-07-06T10:35:41;100249.56;;;23.32;37.18
50282;BME280;36176;51.506;10.272;2022-07-06T10:38:10;100246.22;;;23.50;37.11
50282;BME280;36176;51.506;10.272;2022-07-06T10:40:40;100249.94;;;23.49;36.04
50282;BME280;36176;51.506;10.272;2022-07-06T10:43:38;100246.34;;;23.89;36.71
50282;BME280;36176;51.506;10.272;2022-07-06T10:46:09;100250.56;;;24.51;35.84
50282;BME280;36176;51.506;10.272;2022-07-06T10:48:42;100251.41;;;25.38;34.32
50282;BME280;36176;51.506;10.272;2022-07-06T10:51:24;100250.47;;;25.57;34.24
50282;BME280;36176;51.506;10.272;2022-07-06T10:54:04;100247.13;;;25.35;32.25
50282;BME280;36176;51.506;10.272;2022-07-06T10:56:43;100252.84;;;24.66;32.60
50282;BME280;36176;51.506;10.272;2022-07-06T10:59:13;100240.28;;;24.16;33.97
50282;BME280;36176;51.506;10.272;2022-07-06T11:02:17;100231.03;;;23.59;33.91
50282;BME280;36176;51.506;10.272;2022-07-06T11:04:48;100234.44;;;23.20;34.60
50282;BME280;36176;51.506;10.272;2022-07-06T11:07:18;100224.41;;;23.42;35.67
50282;BME280;36176;51.506;10.272;2022-07-06T11:09:56;100225.13;;;23.94;36.09
50282;BME280;36176;51.506;10.272;2022-07-06T11:12:24;100230.16;;;24.18;34.07
50282;BME280;36176;51.506;10.272;2022-07-06T11:14:56;100230.13;;;23.98;34.13
50282;BME280;36176;51.506;10.272;2022-07-06T11:17:31;100221.38;;;23.66;35.35
50282;BME280;36176;51.506;10.272;2022-07-06T11:20:12;100225.81;;;23.36;35.17
50282;BME280;36176;51.506;10.272;2022-07-06T11:22:39;100226.94;;;23.03;35.32
50282;BME280;36176;51.506;10.272;2022-07-06T11:25:06;100240.78;;;22.67;35.81
50282;BME280;36176;51.506;10.272;2022-07-06T11:27:34;100237.59;;;22.41;36.14
50282;BME280;36176;51.506;10.272;2022-07-06T11:30:01;100239.75;;;22.15;36.25
50282;BME280;36176;51.506;10.272;2022-07-06T11:32:29;100247.75;;;22.49;37.75
50282;BME280;36176;51.506;10.272;2022-07-06T11:34:59;100238.75;;;23.02;36.07
50282;BME280;36176;51.506;10.272;2022-07-06T11:37:26;100237.78;;;23.74;35.45
50282;BME280;36176;51.506;10.272;2022-07-06T11:39:53;100232.31;;;24.53;34.16
50282;BME280;36176;51.506;10.272;2022-07-06T11:42:20;100238.56;;;24.63;32.92
50282;BME280;36176;51.506;10.272;2022-07-06T11:44:47;100237.00;;;24.71;33.56
50282;BME280;36176;51.506;10.272;2022-07-06T11:47:17;100235.88;;;24.83;32.98
50282;BME280;36176;51.506;10.272;2022-07-06T11:49:51;100235.72;;;24.75;33.74
50282;BME280;36176;51.506;10.272;2022-07-06T11:52:19;100243.56;;;24.78;32.78
50282;BME280;36176;51.506;10.272;2022-07-06T11:54:47;100240.84;;;24.78;33.27
50282;BME280;36176;51.506;10.272;2022-07-06T11:57:14;100238.81;;;25.19;34.30
50282;BME280;36176;51.506;10.272;2022-07-06T11:59:42;100233.22;;;25.20;33.64
50282;BME280;36176;51.506;10.272;2022-07-06T12:02:15;100230.25;;;25.69;32.75
50282;BME280;36176;51.506;10.272;2022-07-06T12:04:44;100222.81;;;25.06;32.16
50282;BME280;36176;51.506;10.272;2022-07-06T12:07:16;100225.63;;;24.28;33.26
50282;BME280;36176;51.506;10.272;2022-07-06T12:09:46;100228.13;;;23.91;33.88
50282;BME280;36176;51.506;10.272;2022-07-06T12:12:16;100224.56;;;23.81;35.08
50282;BME280;36176;51.506;10.272;2022-07-06T12:14:44;100220.72;;;23.93;34.75
50282;BME280;36176;51.506;10.272;2022-07-06T12:17:13;100210.88;;;23.82;34.45
50282;BME280;36176;51.506;10.272;2022-07-06T12:19:53;100211.13;;;23.29;34.13
50282;BME280;36176;51.506;10.272;2022-07-06T12:22:26;100219.84;;;22.90;34.34
50282;BME280;36176;51.506;10.272;2022-07-06T12:25:02;100219.00;;;22.48;35.22
50282;BME280;36176;51.506;10.272;2022-07-06T12:27:39;100221.22;;;22.22;36.31
50282;BME280;36176;51.506;10.272;2022-07-06T12:30:10;100213.53;;;22.06;36.70
50282;BME280;36176;51.506;10.272;2022-07-06T12:32:41;100212.91;;;22.02;37.02
50282;BME280;36176;51.506;10.272;2022-07-06T12:35:09;100213.81;;;21.92;37.56
50282;BME280;36176;51.506;10.272;2022-07-06T12:37:54;100204.13;;;21.89;37.89
50282;BME280;36176;51.506;10.272;2022-07-06T12:40:26;100205.72;;;21.92;36.71
50282;BME280;36176;51.506;10.272;2022-07-06T12:42:54;100204.59;;;22.05;37.22
50282;BME280;36176;51.506;10.272;2022-07-06T12:45:27;100210.19;;;22.14;34.86
50282;BME280;36176;51.506;10.272;2022-07-06T12:47:59;100200.75;;;22.08;35.59
50282;BME280;36176;51.506;10.272;2022-07-06T12:50:36;100203.13;;;22.01;34.83
50282;BME280;36176;51.506;10.272;2022-07-06T12:53:05;100201.78;;;21.96;34.50
50282;BME280;36176;51.506;10.272;2022-07-06T12:55:35;100204.69;;;21.72;33.79